createdAt,value
2023-03-29T00:00:47.719Z,70.0351
2023-03-29T00:01:48.544Z,70.2451
2023-03-29T00:02:49.604Z,71.5027
2023-03-29T00:03:50.603Z,72.8579
2023-03-29T00:04:51.358Z,73.3772
2023-03-29T00:05:52.150Z,74.8129
2023-03-29T00:06:52.960Z,76.1164
2023-03-29T00:07:53.759Z,77.3064
2023-03-29T00:08:54.556Z,77.2639
2023-03-29T00:09:55.349Z,77.6670
2023-03-29T00:10:56.180Z,78.1836
2023-03-29T00:11:57.021Z,78.1180
2023-03-29T00:12:57.838Z,79.2505
2023-03-29T00:13:58.631Z,76.1747
2023-03-29T00:14:59.419Z,74.6503
2023-03-29T00:16:00.196Z,75.7895
2023-03-29T00:17:01.425Z,75.2037
2023-03-29T00:18:02.326Z,73.7449
2023-03-29T00:20:03.870Z,73.7409
2023-03-29T00:22:05.795Z,73.5761
2023-03-29T00:23:06.598Z,73.3532
2023-03-29T00:24:07.430Z,73.1615
2023-03-29T00:25:08.216Z,72.9432
2023-03-29T00:26:09.025Z,72.3754
2023-03-29T00:27:09.839Z,72.3534
2023-03-29T00:28:10.640Z,73.9098
2023-03-29T00:29:11.471Z,74.7164
2023-03-29T00:30:12.283Z,72.1531
2023-03-29T00:31:13.236Z,73.3255
2023-03-29T00:32:14.037Z,71.2292
2023-03-29T00:33:14.928Z,70.2980
2023-03-29T00:34:15.736Z,67.9623
2023-03-29T00:35:16.579Z,65.7089
2023-03-29T00:36:17.406Z,68.3579
2023-03-29T00:37:18.248Z,69.7831
2023-03-29T00:38:19.057Z,69.1276
2023-03-29T00:39:19.841Z,69.2581
2023-03-29T00:40:20.666Z,67.3668
2023-03-29T00:41:21.471Z,69.6641
2023-03-29T00:42:22.305Z,69.8390
2023-03-29T00:43:23.138Z,68.9191
2023-03-29T00:44:23.943Z,66.2314
2023-03-29T00:45:24.751Z,66.1052
2023-03-29T00:46:25.686Z,65.0884
2023-03-29T00:47:26.683Z,66.2527
2023-03-29T00:48:27.449Z,67.4617
2023-03-29T00:49:28.243Z,67.2368
2023-03-29T00:51:29.795Z,68.3636
2023-03-29T00:52:30.559Z,68.7908
2023-03-29T00:53:31.364Z,69.7181
2023-03-29T00:54:32.168Z,69.8435
2023-03-29T00:55:32.958Z,68.2475
2023-03-29T00:56:33.753Z,68.1128
2023-03-29T00:57:34.525Z,66.4508
2023-03-29T00:58:35.361Z,66.1155
2023-03-29T00:59:36.162Z,65.3416
2023-03-29T01:00:36.968Z,67.2589
2023-03-29T01:01:37.765Z,67.3785
2023-03-29T01:02:38.835Z,65.5775
2023-03-29T01:03:39.936Z,63.6274
2023-03-29T01:04:40.775Z,63.5921
2023-03-29T01:05:41.623Z,63.8087
2023-03-29T01:06:42.493Z,63.6939
2023-03-29T01:07:43.313Z,64.1880
2023-03-29T01:08:44.105Z,65.7070
2023-03-29T01:10:45.623Z,65.0139
2023-03-29T01:11:46.391Z,65.4299
2023-03-29T01:12:47.233Z,65.9538
2023-03-29T01:13:48.021Z,65.9293
2023-03-29T01:14:49.064Z,66.6387
2023-03-29T01:15:49.847Z,66.7147
2023-03-29T01:16:50.722Z,66.4846
2023-03-29T01:17:51.592Z,67.9103
2023-03-29T01:18:52.353Z,67.5602
2023-03-29T01:19:53.135Z,67.5713
2023-03-29T01:20:53.926Z,65.6289
2023-03-29T01:21:54.757Z,65.2655
2023-03-29T01:22:55.573Z,65.2214
2023-03-29T01:23:56.403Z,63.5777
2023-03-29T01:24:57.184Z,64.3354
2023-03-29T01:25:58.070Z,65.2341
2023-03-29T01:26:58.850Z,65.6593
2023-03-29T01:27:59.719Z,65.5243
2023-03-29T01:29:00.503Z,65.1906
2023-03-29T01:30:01.413Z,66.1478
2023-03-29T01:31:02.844Z,66.4554
2023-03-29T01:32:04.220Z,65.4521
2023-03-29T01:33:05.100Z,64.4572
2023-03-29T01:34:05.920Z,63.4489
2023-03-29T01:36:07.473Z,65.2350
2023-03-29T01:38:09.010Z,66.0402
2023-03-29T01:39:09.796Z,67.0555
2023-03-29T01:40:10.607Z,66.9190
2023-03-29T01:41:11.426Z,64.5890
2023-03-29T01:42:12.240Z,64.1019
2023-03-29T01:43:13.391Z,64.4229
2023-03-29T01:44:14.567Z,66.1334
2023-03-29T01:45:15.650Z,65.3803
2023-03-29T01:46:16.511Z,65.7631
2023-03-29T01:47:17.377Z,65.5215
2023-03-29T01:48:18.190Z,65.1671
2023-03-29T01:49:19.001Z,65.2689
2023-03-29T01:50:19.834Z,64.9425
2023-03-29T01:51:20.667Z,66.5604
2023-03-29T01:52:21.488Z,66.4703
2023-03-29T01:53:22.364Z,66.8111
2023-03-29T01:54:23.174Z,66.4211
2023-03-29T01:55:23.998Z,67.3525
2023-03-29T01:56:24.790Z,67.0144
2023-03-29T01:57:25.795Z,66.0139
2023-03-29T01:59:27.283Z,66.9494
2023-03-29T02:00:28.093Z,67.8668
2023-03-29T02:01:29.095Z,65.7541
2023-03-29T02:02:30.102Z,67.2896
2023-03-29T02:03:31.456Z,68.0983
2023-03-29T02:04:32.430Z,68.2772
2023-03-29T02:05:33.230Z,67.6240
2023-03-29T02:06:34.006Z,66.4698
2023-03-29T02:07:34.821Z,67.8515
2023-03-29T02:08:35.709Z,67.9467
2023-03-29T02:09:36.513Z,66.0802
2023-03-29T02:10:37.286Z,65.8800
2023-03-29T02:11:38.129Z,66.1724
2023-03-29T02:12:38.921Z,68.8195
2023-03-29T02:13:39.780Z,67.0756
2023-03-29T02:14:40.729Z,66.0578
2023-03-29T02:15:41.589Z,66.5489
2023-03-29T02:16:42.468Z,68.2888
2023-03-29T02:17:43.339Z,70.3898
2023-03-29T02:18:44.217Z,69.0913
2023-03-29T02:20:45.722Z,68.1065
2023-03-29T02:21:46.525Z,71.2284
2023-03-29T02:22:47.361Z,71.4492
2023-03-29T02:23:48.180Z,72.1341
2023-03-29T02:24:49.017Z,71.1721
2023-03-29T02:25:49.873Z,68.3605
2023-03-29T02:26:50.819Z,65.7848
2023-03-29T02:27:51.619Z,66.4504
2023-03-29T02:28:52.444Z,67.6976
2023-03-29T02:29:53.288Z,69.4238
2023-03-29T02:30:54.143Z,68.7376
2023-03-29T02:31:54.933Z,68.8874
2023-03-29T02:32:55.861Z,68.4022
2023-03-29T02:33:56.697Z,67.9342
2023-03-29T02:35:58.302Z,68.9908
2023-03-29T02:37:59.758Z,69.5562
2023-03-29T02:39:00.607Z,68.9183
2023-03-29T02:40:01.457Z,66.9400
2023-03-29T02:41:02.841Z,66.9789
2023-03-29T02:42:03.886Z,65.9637
2023-03-29T02:43:04.690Z,66.1914
2023-03-29T02:44:05.510Z,70.1395
2023-03-29T02:45:06.316Z,72.2081
2023-03-29T02:46:07.196Z,73.2226
2023-03-29T02:47:08.020Z,69.8526
2023-03-29T02:48:08.921Z,67.7451
2023-03-29T02:49:09.771Z,68.8923
2023-03-29T02:50:10.619Z,70.1570
2023-03-29T02:51:11.438Z,68.0221
2023-03-29T02:52:12.280Z,69.4049
2023-03-29T02:53:13.113Z,68.0493
2023-03-29T02:54:13.921Z,68.4851
2023-03-29T02:55:14.711Z,66.7860
2023-03-29T02:56:15.516Z,68.8145
2023-03-29T02:57:16.566Z,72.7238
2023-03-29T02:58:17.362Z,72.6246
2023-03-29T02:59:18.181Z,72.1532
2023-03-29T03:00:19.005Z,73.1754
2023-03-29T03:01:19.852Z,71.1546
2023-03-29T03:02:20.832Z,73.0519
2023-03-29T03:03:21.798Z,73.2291
2023-03-29T03:04:22.608Z,71.8400
2023-03-29T03:05:23.446Z,70.3507
2023-03-29T03:06:25.329Z,70.9441
2023-03-29T03:07:26.165Z,69.7580
2023-03-29T03:08:26.958Z,69.6500
2023-03-29T03:09:27.838Z,67.0119
2023-03-29T03:10:28.674Z,68.0530
2023-03-29T03:11:29.436Z,69.0797
2023-03-29T03:13:31.000Z,68.0676
2023-03-29T03:15:32.516Z,68.7560
2023-03-29T03:17:34.121Z,71.4559
2023-03-29T03:18:34.934Z,71.7477
2023-03-29T03:19:35.756Z,70.3896
2023-03-29T03:20:36.594Z,70.7318
2023-03-29T03:21:37.386Z,69.3567
2023-03-29T03:22:38.182Z,71.2849
2023-03-29T03:24:39.715Z,70.7071
2023-03-29T03:25:40.521Z,69.9276
2023-03-29T03:26:41.379Z,70.0772
2023-03-29T03:27:42.188Z,70.2355
2023-03-29T03:28:42.993Z,70.4068
2023-03-29T03:29:43.886Z,70.2313
2023-03-29T03:30:44.999Z,68.8627
2023-03-29T03:31:45.824Z,65.1218
2023-03-29T03:32:46.699Z,64.3350
2023-03-29T03:33:47.514Z,67.0007
2023-03-29T03:34:48.370Z,67.3676
2023-03-29T03:35:49.235Z,67.5763
2023-03-29T03:36:50.029Z,67.5425
2023-03-29T03:37:50.871Z,69.4473
2023-03-29T03:38:51.715Z,71.0098
2023-03-29T03:39:52.443Z,69.4990
2023-03-29T03:40:53.349Z,68.2766
2023-03-29T03:41:54.188Z,67.4582
2023-03-29T03:42:55.129Z,67.8761
2023-03-29T03:43:56.262Z,69.1608
2023-03-29T03:44:57.308Z,69.1169
2023-03-29T03:45:58.337Z,68.0639
2023-03-29T03:46:59.124Z,69.1975
2023-03-29T03:48:00.014Z,68.1107
2023-03-29T03:49:00.820Z,70.7710
2023-03-29T03:50:01.658Z,71.7014
2023-03-29T03:51:03.063Z,72.6123
2023-03-29T03:52:04.017Z,71.5784
2023-03-29T03:53:04.757Z,71.3095
2023-03-29T03:54:05.625Z,69.7227
2023-03-29T03:55:06.362Z,71.8816
2023-03-29T03:57:08.047Z,70.2807
2023-03-29T03:58:08.798Z,69.7909
2023-03-29T03:59:09.596Z,70.7036
2023-03-29T04:00:10.417Z,71.9739
2023-03-29T04:01:11.173Z,69.6036
2023-03-29T04:02:11.988Z,68.3694
2023-03-29T04:03:13.025Z,68.2195
2023-03-29T04:05:14.838Z,70.1548
2023-03-29T04:06:15.647Z,71.3187
2023-03-29T04:07:16.432Z,69.2390
2023-03-29T04:09:18.037Z,70.4458
2023-03-29T04:10:18.865Z,71.1456
2023-03-29T04:11:19.710Z,71.7848
2023-03-29T04:12:20.517Z,72.2556
2023-03-29T04:13:21.378Z,67.9479
2023-03-29T04:14:22.174Z,66.3843
2023-03-29T04:16:23.802Z,68.4206
2023-03-29T04:17:24.792Z,69.2636
2023-03-29T04:18:25.892Z,66.4091
2023-03-29T04:19:26.747Z,68.0942
2023-03-29T04:20:27.520Z,68.0851
2023-03-29T04:21:28.362Z,67.7891
2023-03-29T04:22:29.156Z,68.2710
2023-03-29T04:23:29.985Z,67.3869
2023-03-29T04:24:30.817Z,66.5009
2023-03-29T04:25:31.617Z,67.6976
2023-03-29T04:26:32.377Z,66.9626
2023-03-29T04:27:33.228Z,67.2608
2023-03-29T04:28:34.017Z,63.1735
2023-03-29T04:29:34.822Z,63.9673
2023-03-29T04:30:35.635Z,64.2577
2023-03-29T04:31:36.534Z,64.3596
2023-03-29T04:33:38.036Z,65.3644
2023-03-29T04:35:39.552Z,64.9869
2023-03-29T04:36:40.315Z,65.6932
2023-03-29T04:37:42.121Z,66.7907
2023-03-29T04:38:48.104Z,68.0161
2023-03-29T04:39:44.688Z,67.8769
2023-03-29T04:41:46.215Z,67.7153
2023-03-29T04:42:47.005Z,67.6157
2023-03-29T04:43:47.810Z,66.0573
2023-03-29T04:44:48.680Z,65.5919
2023-03-29T04:45:49.554Z,66.4254
2023-03-29T04:46:50.568Z,64.5662
2023-03-29T04:47:51.424Z,65.9424
2023-03-29T04:48:52.202Z,66.8854
2023-03-29T04:49:53.062Z,67.9808
2023-03-29T04:50:53.906Z,67.0869
2023-03-29T04:51:54.753Z,65.2453
2023-03-29T04:52:55.554Z,61.9221
2023-03-29T04:53:56.322Z,61.2377
2023-03-29T04:54:57.113Z,60.7101
2023-03-29T04:55:57.919Z,58.9204
2023-03-29T04:56:58.780Z,58.1227
2023-03-29T04:57:59.561Z,57.8416
2023-03-29T04:59:00.406Z,58.7048
2023-03-29T05:00:01.215Z,58.5515
2023-03-29T05:01:03.026Z,57.7591
2023-03-29T05:02:04.235Z,58.1282
2023-03-29T05:03:05.142Z,59.1365
2023-03-29T05:05:06.756Z,58.7528
2023-03-29T05:06:07.956Z,58.5424
2023-03-29T05:07:08.776Z,58.9535
2023-03-29T05:09:10.371Z,59.3196
2023-03-29T05:10:11.257Z,59.0884
2023-03-29T05:11:12.124Z,58.1257
2023-03-29T05:12:12.957Z,57.6693
2023-03-29T05:13:13.766Z,57.7846
2023-03-29T05:14:14.534Z,57.5468
2023-03-29T05:15:15.459Z,58.1246
2023-03-29T05:16:16.322Z,59.5592
2023-03-29T05:18:18.295Z,59.2747
2023-03-29T05:19:19.328Z,58.1133
2023-03-29T05:21:20.943Z,58.9255
2023-03-29T05:22:21.812Z,59.1258
2023-03-29T05:23:22.661Z,58.5343
2023-03-29T05:24:23.541Z,59.8710
2023-03-29T05:25:24.283Z,59.6322
2023-03-29T05:26:25.085Z,60.2492
2023-03-29T05:27:25.878Z,60.8466
2023-03-29T05:28:26.653Z,61.0631
2023-03-29T05:29:27.446Z,60.4071
2023-03-29T05:30:28.236Z,60.2526
2023-03-29T05:32:29.861Z,59.6557
2023-03-29T05:34:31.410Z,59.6815
2023-03-29T05:35:32.317Z,58.2556
2023-03-29T05:36:33.132Z,58.4583
2023-03-29T05:37:33.884Z,59.9980
2023-03-29T05:38:34.670Z,62.9113
2023-03-29T05:39:37.982Z,62.4195
2023-03-29T05:40:36.647Z,62.0179
2023-03-29T05:41:37.447Z,59.9745
2023-03-29T05:42:38.246Z,59.4425
2023-03-29T05:43:38.978Z,60.1621
2023-03-29T05:44:39.735Z,59.2099
2023-03-29T05:45:40.950Z,59.2164
2023-03-29T05:46:41.702Z,60.0807
2023-03-29T05:47:42.567Z,60.8427
2023-03-29T05:49:44.053Z,61.0923
2023-03-29T05:50:46.727Z,60.5982
2023-03-29T05:51:45.350Z,59.9365
2023-03-29T05:53:47.069Z,60.5618
2023-03-29T05:55:49.703Z,61.7398
2023-03-29T05:56:50.582Z,62.0831
2023-03-29T05:57:51.400Z,61.4674
2023-03-29T05:58:55.313Z,62.1705
2023-03-29T06:03:56.784Z,62.4804
2023-03-29T06:04:57.774Z,63.0355
2023-03-29T06:05:58.528Z,62.3049
2023-03-29T06:06:59.424Z,62.1490
2023-03-29T06:08:00.473Z,63.6670
2023-03-29T06:09:01.339Z,63.0137
2023-03-29T06:10:02.094Z,64.3371
2023-03-29T06:11:05.538Z,63.0949
2023-03-29T06:12:04.534Z,61.5446
2023-03-29T06:13:05.404Z,61.6043
2023-03-29T06:14:06.230Z,62.0218
2023-03-29T06:15:06.998Z,59.7032
2023-03-29T06:16:07.815Z,60.9481
2023-03-29T06:17:08.712Z,61.7410
2023-03-29T06:18:09.515Z,62.2873
2023-03-29T06:19:10.266Z,62.1629
2023-03-29T06:20:11.069Z,60.7289
2023-03-29T06:21:12.967Z,59.8029
2023-03-29T06:23:16.106Z,59.6371
2023-03-29T06:24:16.963Z,58.5072
2023-03-29T06:25:17.919Z,59.3730
2023-03-29T06:26:18.715Z,59.6978
2023-03-29T06:27:19.478Z,60.9769
2023-03-29T06:28:20.235Z,58.6637
2023-03-29T06:29:21.045Z,59.9431
2023-03-29T06:30:21.794Z,59.6765
2023-03-29T06:31:22.685Z,60.7874
2023-03-29T06:32:23.611Z,60.0580
2023-03-29T06:33:24.416Z,61.2154
2023-03-29T06:34:25.227Z,61.6273
2023-03-29T06:35:26.002Z,59.1593
2023-03-29T06:37:27.729Z,59.7174
2023-03-29T06:38:28.778Z,59.2911
2023-03-29T06:39:29.519Z,58.5488
2023-03-29T06:40:30.287Z,59.6143
2023-03-29T06:41:31.155Z,59.3614
2023-03-29T06:42:31.934Z,58.7242
2023-03-29T06:43:32.709Z,59.5195
2023-03-29T06:44:33.850Z,58.6433
2023-03-29T06:45:34.865Z,58.3379
2023-03-29T06:46:35.718Z,56.8456
2023-03-29T06:47:36.556Z,57.7962
2023-03-29T06:48:37.375Z,57.6644
2023-03-29T06:49:38.189Z,58.0139
2023-03-29T06:50:38.953Z,57.5709
2023-03-29T06:51:39.733Z,57.1836
2023-03-29T06:52:40.557Z,57.1628
2023-03-29T06:53:41.342Z,58.2654
2023-03-29T06:55:42.764Z,58.1062
2023-03-29T06:57:44.274Z,59.0179
2023-03-29T06:58:45.103Z,58.6859
2023-03-29T06:59:45.907Z,57.2648
2023-03-29T07:01:47.504Z,56.4617
2023-03-29T07:02:48.252Z,57.0700
2023-03-29T07:03:49.088Z,57.5950
2023-03-29T07:04:49.939Z,57.0456
2023-03-29T07:05:50.671Z,57.0180
2023-03-29T07:07:52.101Z,58.2381
2023-03-29T07:08:52.936Z,59.1062
2023-03-29T07:09:53.741Z,59.2590
2023-03-29T07:11:56.196Z,65.8722
2023-03-29T07:12:56.969Z,67.4021
2023-03-29T07:13:57.755Z,65.8018
2023-03-29T07:14:58.557Z,66.0767
2023-03-29T07:15:59.465Z,69.2635
2023-03-29T07:17:00.277Z,68.2943
2023-03-29T07:18:01.159Z,69.0926
2023-03-29T07:19:01.912Z,70.1459
2023-03-29T07:21:03.557Z,70.8539
2023-03-29T07:22:04.378Z,69.5350
2023-03-29T07:23:05.159Z,70.3691
2023-03-29T07:24:05.928Z,70.4275
2023-03-29T07:26:07.443Z,68.6424
2023-03-29T07:27:08.205Z,70.5072
2023-03-29T07:28:08.969Z,69.4085
2023-03-29T07:29:09.746Z,69.0096
2023-03-29T07:30:10.529Z,68.2494
2023-03-29T07:31:11.677Z,68.7198
2023-03-29T07:33:13.852Z,69.7499
2023-03-29T07:34:14.644Z,67.2428
2023-03-29T07:35:15.427Z,70.0344
2023-03-29T07:36:16.267Z,69.5910
2023-03-29T07:37:17.121Z,69.6481
2023-03-29T07:38:17.896Z,69.5311
2023-03-29T07:39:18.724Z,69.7924
2023-03-29T07:40:19.512Z,69.2604
2023-03-29T07:41:20.282Z,70.4101
2023-03-29T07:42:21.072Z,70.0949
2023-03-29T07:43:21.860Z,69.4570
2023-03-29T07:44:22.642Z,62.2059
2023-03-29T07:45:29.356Z,67.8152
2023-03-29T07:51:29.214Z,68.3120
2023-03-29T07:53:31.820Z,67.3969
2023-03-29T07:54:32.607Z,68.2739
2023-03-29T07:55:33.406Z,66.9410
2023-03-29T07:56:34.203Z,64.7650
2023-03-29T07:57:34.956Z,64.1440
2023-03-29T07:58:35.774Z,64.5549
2023-03-29T07:59:36.515Z,63.5544
2023-03-29T08:00:37.300Z,61.9584
2023-03-29T08:01:38.049Z,61.6053
2023-03-29T08:02:38.810Z,63.3515
2023-03-29T08:03:39.646Z,64.7719
2023-03-29T08:04:40.445Z,64.6932
2023-03-29T08:05:42.606Z,65.3498
2023-03-29T08:08:42.639Z,66.3765
2023-03-29T08:09:43.458Z,64.1108
2023-03-29T08:10:44.196Z,64.5420
2023-03-29T08:11:44.940Z,64.1723
2023-03-29T08:12:45.727Z,62.3574
2023-03-29T08:13:46.466Z,63.2617
2023-03-29T08:14:47.227Z,65.1722
2023-03-29T08:15:48.036Z,67.3596
2023-03-29T08:16:48.859Z,65.4385
2023-03-29T08:17:49.664Z,64.8326
2023-03-29T08:18:50.516Z,66.1053
2023-03-29T08:19:52.743Z,66.9816
2023-03-29T08:21:52.054Z,66.5846
2023-03-29T08:23:53.459Z,67.4894
2023-03-29T08:24:54.239Z,67.0801
2023-03-29T08:25:55.060Z,66.5218
2023-03-29T08:26:55.893Z,67.3415
2023-03-29T08:27:56.807Z,67.9066
2023-03-29T08:28:57.581Z,68.0790
2023-03-29T08:29:58.336Z,66.4799
2023-03-29T08:30:59.216Z,67.6052
2023-03-29T08:31:59.954Z,66.7325
2023-03-29T08:33:00.829Z,65.9646
2023-03-29T08:34:01.602Z,64.3255
2023-03-29T08:35:02.386Z,66.9128
2023-03-29T08:36:03.211Z,65.4781
2023-03-29T08:37:03.968Z,63.4644
2023-03-29T08:38:04.778Z,65.3846
2023-03-29T08:39:05.550Z,64.5098
2023-03-29T08:41:07.000Z,63.7712
2023-03-29T08:42:07.824Z,63.3799
2023-03-29T08:43:08.622Z,64.4468
2023-03-29T08:44:09.387Z,63.6263
2023-03-29T08:45:10.143Z,63.4088
2023-03-29T08:46:10.930Z,63.1013
2023-03-29T08:47:11.701Z,61.6332
2023-03-29T08:48:12.489Z,62.4739
2023-03-29T08:49:13.290Z,62.1423
2023-03-29T08:50:14.103Z,63.9722
2023-03-29T08:51:14.849Z,60.7611
2023-03-29T08:52:15.640Z,62.5581
2023-03-29T08:53:16.429Z,63.8714
2023-03-29T08:54:17.219Z,63.4468
2023-03-29T08:55:17.993Z,60.6595
2023-03-29T08:56:18.760Z,59.7356
2023-03-29T08:57:19.699Z,60.9082
2023-03-29T08:58:20.511Z,59.1684
2023-03-29T08:59:21.301Z,61.2401
2023-03-29T09:00:22.043Z,61.1663
2023-03-29T09:01:22.996Z,59.8921
2023-03-29T09:02:24.357Z,59.6763
2023-03-29T09:03:25.321Z,60.1588
2023-03-29T09:04:26.183Z,59.0329
2023-03-29T09:05:26.986Z,57.3789
2023-03-29T09:06:27.884Z,57.6823
2023-03-29T09:08:29.365Z,59.0348
2023-03-29T09:10:30.918Z,58.0189
2023-03-29T09:12:32.319Z,58.1871
2023-03-29T09:13:33.239Z,58.3664
2023-03-29T09:14:33.982Z,58.9892
2023-03-29T09:15:34.783Z,58.9916
2023-03-29T09:16:35.686Z,58.2166
2023-03-29T09:17:36.477Z,59.8161
2023-03-29T09:18:37.331Z,59.9073
2023-03-29T09:19:38.194Z,59.9322
2023-03-29T09:20:39.005Z,60.3658
2023-03-29T09:21:39.786Z,62.5848
2023-03-29T09:22:40.552Z,62.9271
2023-03-29T09:23:41.373Z,60.8035
2023-03-29T09:29:47.044Z,60.5271
2023-03-29T09:30:47.833Z,60.1156
2023-03-29T09:31:48.727Z,59.7451
2023-03-29T09:32:49.537Z,60.0059
2023-03-29T09:33:50.272Z,60.3456
2023-03-29T09:34:51.044Z,60.5794
2023-03-29T09:35:51.926Z,60.1332
2023-03-29T09:36:52.832Z,61.7466
2023-03-29T09:37:53.589Z,61.3140
2023-03-29T09:38:54.600Z,61.3536
2023-03-29T09:39:55.349Z,62.1942
2023-03-29T09:40:56.202Z,62.7957
2023-03-29T09:41:56.953Z,62.8413
2023-03-29T09:42:57.707Z,61.8648
2023-03-29T09:43:58.541Z,61.3921
2023-03-29T09:44:59.332Z,60.6605
2023-03-29T09:46:00.321Z,62.1767
2023-03-29T09:47:01.120Z,61.4959
2023-03-29T09:48:01.928Z,62.5867
2023-03-29T09:49:02.688Z,58.7578
2023-03-29T09:50:03.482Z,61.2189
2023-03-29T09:51:05.067Z,59.8803
2023-03-29T09:52:05.887Z,60.7181
2023-03-29T09:53:06.668Z,59.2147
2023-03-29T09:54:07.460Z,60.0182
2023-03-29T09:56:09.111Z,59.9164
2023-03-29T09:57:10.073Z,59.5327
2023-03-29T09:58:10.878Z,61.0169
2023-03-29T09:59:11.680Z,61.6435
2023-03-29T10:00:12.481Z,62.3949
2023-03-29T10:01:13.289Z,61.4239
2023-03-29T10:02:14.011Z,61.3770
2023-03-29T10:03:14.840Z,58.9640
2023-03-29T10:04:15.636Z,61.3159
2023-03-29T10:05:16.392Z,61.6596
2023-03-29T10:06:17.181Z,61.2061
2023-03-29T10:07:17.955Z,61.0569
2023-03-29T10:19:27.322Z,59.2811
2023-03-29T10:20:28.096Z,60.1559
2023-03-29T10:21:28.853Z,58.6575
2023-03-29T10:22:29.651Z,60.2757
2023-03-29T10:23:30.426Z,57.2799
2023-03-29T10:24:31.162Z,57.1009
2023-03-29T10:25:31.922Z,57.7644
2023-03-29T10:26:32.730Z,59.4168
2023-03-29T10:27:33.488Z,57.9401
2023-03-29T10:28:34.265Z,59.0229
2023-03-29T10:29:35.065Z,58.6280
2023-03-29T10:30:35.885Z,57.3627
2023-03-29T10:31:36.695Z,57.0092
2023-03-29T10:33:38.144Z,58.2714
2023-03-29T10:34:38.987Z,58.1416
2023-03-29T10:35:39.778Z,56.5816
2023-03-29T10:36:40.568Z,57.8898
2023-03-29T10:37:41.341Z,57.1796
2023-03-29T10:38:42.100Z,56.0761
2023-03-29T10:39:42.879Z,52.8492
2023-03-29T10:40:43.666Z,53.8851
2023-03-29T10:41:44.467Z,54.9796
2023-03-29T10:42:45.255Z,53.6096
2023-03-29T10:43:46.280Z,52.0707
2023-03-29T10:45:47.747Z,54.7376
2023-03-29T10:46:48.479Z,55.8165
2023-03-29T10:48:49.982Z,55.2243
2023-03-29T10:50:51.971Z,55.0445
2023-03-29T10:51:52.719Z,52.4332
2023-03-29T10:52:53.456Z,51.3375
2023-03-29T10:53:54.293Z,51.9968
2023-03-29T10:54:55.088Z,53.5565
2023-03-29T10:55:55.879Z,57.8926
2023-03-29T10:56:56.793Z,55.7956
2023-03-29T10:57:57.548Z,57.2785
2023-03-29T10:58:58.324Z,59.7958
2023-03-29T10:59:59.085Z,57.6511
2023-03-29T11:01:00.299Z,59.1407
2023-03-29T11:02:01.326Z,58.5274
2023-03-29T11:03:02.198Z,60.6191
2023-03-29T11:04:03.192Z,60.6438
2023-03-29T11:05:04.058Z,61.6976
2023-03-29T11:06:04.861Z,59.5435
2023-03-29T11:07:05.676Z,59.4504
2023-03-29T11:08:06.454Z,57.8114
2023-03-29T11:09:07.279Z,56.3498
2023-03-29T11:10:08.100Z,57.9790
2023-03-29T11:11:08.859Z,55.5591
2023-03-29T11:12:16.542Z,55.1471
2023-03-29T11:13:10.645Z,54.9947
2023-03-29T11:15:12.086Z,51.8230
2023-03-29T11:16:12.906Z,51.8257
2023-03-29T11:17:13.705Z,52.0321
2023-03-29T11:18:14.468Z,50.4025
2023-03-29T11:19:15.238Z,51.5171
2023-03-29T11:20:16.058Z,50.5686
2023-03-29T11:21:16.852Z,51.7051
2023-03-29T11:22:17.663Z,50.5074
2023-03-29T11:23:18.465Z,50.2399
2023-03-29T11:24:19.285Z,51.0228
2023-03-29T11:25:20.105Z,50.2462
2023-03-29T11:26:20.882Z,51.0376
2023-03-29T11:27:21.705Z,50.6160
2023-03-29T11:29:23.216Z,46.5778
2023-03-29T11:31:24.999Z,49.5677
2023-03-29T11:32:25.946Z,45.8277
2023-03-29T11:33:26.689Z,45.5459
2023-03-29T11:34:27.486Z,46.2848
2023-03-29T11:35:28.276Z,45.7694
2023-03-29T11:36:29.089Z,46.3376
2023-03-29T11:37:29.829Z,43.7368
2023-03-29T11:38:30.625Z,45.0935
2023-03-29T11:39:32.438Z,46.3782
2023-03-29T11:40:33.370Z,45.6575
2023-03-29T11:41:34.179Z,45.5758
2023-03-29T11:42:34.984Z,45.0231
2023-03-29T11:43:35.783Z,44.4917
2023-03-29T11:44:36.626Z,43.9243
2023-03-29T11:45:37.440Z,44.6302
2023-03-29T11:46:38.380Z,45.7889
2023-03-29T11:47:39.156Z,46.6225
2023-03-29T11:48:39.938Z,47.5437
2023-03-29T11:49:40.725Z,47.0515
2023-03-29T11:50:41.536Z,48.0275
2023-03-29T11:51:42.337Z,46.2662
2023-03-29T11:53:43.841Z,46.7549
2023-03-29T11:54:44.791Z,47.6898
2023-03-29T11:55:45.570Z,47.0715
2023-03-29T11:56:46.431Z,48.8774
2023-03-29T11:57:47.187Z,49.3149
2023-03-29T11:58:48.002Z,48.7215
2023-03-29T11:59:48.805Z,50.2078
2023-03-29T12:00:49.566Z,50.0534
2023-03-29T12:01:50.407Z,49.9264
2023-03-29T12:02:51.355Z,50.7709
2023-03-29T12:03:52.372Z,52.1928
2023-03-29T12:04:53.208Z,50.5010
2023-03-29T12:05:54.003Z,51.3565
2023-03-29T12:06:54.835Z,50.6032
2023-03-29T12:07:55.646Z,50.5941
2023-03-29T12:08:56.404Z,50.1655
2023-03-29T12:09:57.202Z,50.4816
2023-03-29T12:10:57.991Z,52.7630
2023-03-29T12:11:58.852Z,51.8930
2023-03-29T12:12:59.638Z,52.6652
2023-03-29T12:14:00.424Z,52.3681
2023-03-29T12:15:01.259Z,51.7771
2023-03-29T12:16:02.122Z,52.7490
2023-03-29T12:17:03.183Z,53.1720
2023-03-29T12:19:05.039Z,54.3281
2023-03-29T12:20:05.833Z,54.3165
2023-03-29T12:23:08.208Z,53.4965
2023-03-29T12:24:09.104Z,54.3555
2023-03-29T12:25:10.662Z,54.3473
2023-03-29T12:26:11.456Z,55.7355
2023-03-29T12:27:12.231Z,57.1288
2023-03-29T12:28:13.025Z,56.1082
2023-03-29T12:30:14.558Z,56.7430
2023-03-29T12:31:15.363Z,57.0591
2023-03-29T12:32:16.382Z,56.7365
2023-03-29T12:33:17.280Z,55.1301
2023-03-29T12:34:18.121Z,54.6881
2023-03-29T12:35:18.919Z,53.9398
2023-03-29T12:36:19.685Z,54.3941
2023-03-29T12:37:20.512Z,54.8044
2023-03-29T12:39:21.973Z,55.7202
2023-03-29T12:40:22.800Z,55.3897
2023-03-29T12:41:23.579Z,54.6599
2023-03-29T12:42:24.357Z,53.3537
2023-03-29T12:43:25.124Z,54.0833
2023-03-29T12:44:25.949Z,53.5771
2023-03-29T12:45:26.802Z,54.4817
2023-03-29T12:46:27.830Z,53.3525
2023-03-29T12:47:28.706Z,54.2182
2023-03-29T12:49:30.173Z,52.1042
2023-03-29T12:50:30.931Z,49.9929
2023-03-29T12:51:31.721Z,50.4150
2023-03-29T12:52:32.522Z,51.3354
2023-03-29T12:53:33.302Z,51.7567
2023-03-29T12:54:34.126Z,51.5242
2023-03-29T12:55:34.901Z,53.1875
2023-03-29T12:56:35.680Z,53.8415
2023-03-29T12:57:36.464Z,54.5135
2023-03-29T12:59:38.038Z,57.7490
2023-03-29T13:00:39.038Z,56.1520
2023-03-29T13:01:40.079Z,57.2461
2023-03-29T13:02:41.726Z,57.2253
2023-03-29T13:03:42.521Z,56.9237
2023-03-29T13:04:43.352Z,57.7250
2023-03-29T13:05:44.210Z,56.8769
2023-03-29T13:09:47.160Z,55.9043
2023-03-29T13:10:47.994Z,55.4626
2023-03-29T13:11:48.818Z,54.0615
2023-03-29T13:12:49.662Z,55.7816
2023-03-29T13:13:50.476Z,54.4086
2023-03-29T13:14:51.228Z,55.7896
2023-03-29T13:15:52.085Z,52.9709
2023-03-29T13:16:52.861Z,52.5570
2023-03-29T13:17:53.783Z,53.1234
2023-03-29T13:18:54.553Z,54.4726
2023-03-29T13:19:55.386Z,54.1384
2023-03-29T13:20:56.150Z,53.3223
2023-03-29T13:21:56.959Z,53.2257
2023-03-29T13:22:57.773Z,52.9037
2023-03-29T13:23:58.569Z,52.3184
2023-03-29T13:24:59.385Z,52.3754
2023-03-29T13:26:00.681Z,53.3300
2023-03-29T13:27:01.535Z,53.2989
2023-03-29T13:28:02.337Z,54.0183
2023-03-29T13:29:03.168Z,53.8675
2023-03-29T13:30:03.969Z,55.5346
2023-03-29T13:31:04.754Z,56.3477
2023-03-29T13:32:05.529Z,55.9874
2023-03-29T13:33:06.443Z,55.9329
2023-03-29T13:34:07.283Z,56.2850
2023-03-29T13:35:08.052Z,57.0666
2023-03-29T13:36:09.035Z,56.5669
2023-03-29T13:37:09.782Z,57.2024
2023-03-29T13:38:10.606Z,57.0338
2023-03-29T13:39:11.367Z,54.6483
2023-03-29T13:40:12.172Z,56.2506
2023-03-29T13:47:17.694Z,56.1841
2023-03-29T13:48:18.523Z,55.2901
2023-03-29T13:49:19.331Z,55.2408
2023-03-29T13:50:20.112Z,56.0161
2023-03-29T13:51:20.920Z,52.6886
2023-03-29T13:52:21.681Z,52.4817
2023-03-29T13:53:22.521Z,53.8775
2023-03-29T13:54:23.311Z,53.2340
2023-03-29T13:55:24.110Z,53.3186
2023-03-29T13:56:24.932Z,52.0161